ROMMA est une association bénévole à but non lucratif. Votre soutien est indispensable : ADHERER à ROMMA ou FAIRE un DON

Crêts du Salève - (74, Haute-Savoie)

Salève (1270 m)   Longitude: 6° 10' 28'' E   Latitude: 46° 7' 42'' N Station romma n°73
 

Détail journalier du     <<     >>

Température Humidité Vent Dir Rafale Dir. rafale Ensol.
Heure (°C) (%) (km/h) (km/h) (min)
01:00 -4.99318NE23NE0
02:00 -4.69317ENE26ENE0
03:00 -4.69213ENE23E0
04:00 -4.29016ENE23ENE0
05:00 -3.27719ENE24ENE0
06:00 -3.17717ENE21ENE0
07:00 -3.37320ENE27ENE0
08:00 -2.46525ENE31ENE0
09:00 -1.96125NE32NE20
10:00 1.44313NE21NE60
11:00 2.64310NE19E60
12:00 3.14712E24ENE60
13:00 5.2484E10E60
14:00 5.4402E6E60
15:00 5.84706E60
16:00 5.2392E6E50
17:00 4.9395E10E10
18:00 4.2437E13E0
19:00 4.84413E21E0
20:00 4.34419ENE24ENE0
21:00 4.44015ENE23ENE0
22:00 4.04116E19ENE0
23:00 4.84512E18E0
minuit 5.14511E16E0

Graphique du 21-01-2020

 

Serveur OMMA